createdAt,value
2023-01-05T00:01:30.979Z,2.42
2023-01-05T00:03:59.207Z,2.95
2023-01-05T00:06:27.396Z,2.65
2023-01-05T00:08:55.460Z,2.35
2023-01-05T00:11:42.908Z,1.75
2023-01-05T00:14:32.167Z,2.78
2023-01-05T00:17:19.369Z,3.33
2023-01-05T00:20:05.521Z,2.78
2023-01-05T00:22:36.819Z,3.10
2023-01-05T00:25:12.046Z,2.67
2023-01-05T00:27:41.346Z,3.17
2023-01-05T00:30:10.648Z,2.70
2023-01-05T00:32:40.433Z,2.60
2023-01-05T00:35:09.985Z,2.35
2023-01-05T00:37:39.125Z,3.03
2023-01-05T00:40:08.779Z,3.35
2023-01-05T00:42:36.838Z,3.50
2023-01-05T00:45:06.083Z,4.15
2023-01-05T00:47:34.233Z,2.95
2023-01-05T00:50:03.873Z,3.00
2023-01-05T00:52:32.026Z,2.80
2023-01-05T00:55:00.124Z,2.35
2023-01-05T00:57:28.213Z,3.28
2023-01-05T00:59:56.199Z,3.72
2023-01-05T01:02:24.288Z,2.92
2023-01-05T01:04:52.582Z,2.88
2023-01-05T01:07:21.930Z,2.85
2023-01-05T01:09:51.183Z,2.55
2023-01-05T01:12:19.688Z,2.60
2023-01-05T01:14:48.162Z,2.58
2023-01-05T01:17:16.812Z,2.50
2023-01-05T01:19:46.553Z,2.42
2023-01-05T01:22:15.132Z,2.58
2023-01-05T01:24:44.521Z,2.00
2023-01-05T01:27:12.850Z,2.28
2023-01-05T01:29:40.903Z,3.08
2023-01-05T01:32:09.168Z,1.90
2023-01-05T01:34:37.167Z,3.20
2023-01-05T01:37:05.222Z,1.85
2023-01-05T01:39:33.877Z,2.42
2023-01-05T01:42:03.602Z,2.40
2023-01-05T01:44:51.693Z,3.67
2023-01-05T01:47:25.032Z,3.30
2023-01-05T01:49:54.181Z,2.08
2023-01-05T01:52:23.336Z,1.90
2023-01-05T01:54:51.914Z,2.60
2023-01-05T01:57:22.213Z,2.53
2023-01-05T01:59:50.449Z,2.10
2023-01-05T02:02:19.062Z,2.55
2023-01-05T02:04:47.310Z,2.60
2023-01-05T02:07:16.727Z,2.50
2023-01-05T02:09:45.078Z,2.28
2023-01-05T02:12:23.695Z,1.95
2023-01-05T02:15:00.461Z,1.90
2023-01-05T02:17:34.677Z,3.00
2023-01-05T02:20:34.123Z,2.60
2023-01-05T02:23:33.092Z,1.90
2023-01-05T02:26:49.656Z,2.10
2023-01-05T02:29:42.237Z,2.00
2023-01-05T02:32:15.542Z,2.10
2023-01-05T02:34:48.313Z,2.30
2023-01-05T02:37:20.735Z,2.30
2023-01-05T02:39:52.416Z,2.40
2023-01-05T02:42:22.349Z,2.35
2023-01-05T02:44:50.450Z,2.05
2023-01-05T02:47:40.449Z,2.45
2023-01-05T02:50:14.576Z,2.90
2023-01-05T02:52:46.289Z,3.35
2023-01-05T02:55:17.142Z,2.80
2023-01-05T02:57:50.886Z,1.98
2023-01-05T03:00:21.554Z,1.38
2023-01-05T03:02:54.083Z,2.13
2023-01-05T03:05:24.993Z,1.70
2023-01-05T03:07:54.344Z,1.92
2023-01-05T03:10:40.978Z,2.40
2023-01-05T03:13:27.351Z,2.03
2023-01-05T03:16:01.848Z,2.10
2023-01-05T03:18:32.612Z,1.67
2023-01-05T03:21:01.481Z,1.60
2023-01-05T03:23:47.417Z,1.58
2023-01-05T03:26:33.321Z,1.70
2023-01-05T03:29:19.785Z,1.65
2023-01-05T03:32:08.094Z,2.60
2023-01-05T03:35:00.502Z,1.77
2023-01-05T03:37:33.379Z,2.08
2023-01-05T03:40:03.189Z,1.48
2023-01-05T03:42:31.883Z,1.75
2023-01-05T03:45:00.114Z,2.42
2023-01-05T03:47:28.612Z,1.42
2023-01-05T03:49:58.112Z,1.77
2023-01-05T03:52:26.129Z,2.00
2023-01-05T03:54:54.269Z,1.58
2023-01-05T03:57:22.489Z,2.42
2023-01-05T03:59:50.611Z,2.70
2023-01-05T04:02:18.801Z,2.03
2023-01-05T04:04:47.171Z,2.10
2023-01-05T04:07:16.604Z,2.20
2023-01-05T04:09:44.818Z,2.35
2023-01-05T04:12:12.871Z,1.83
2023-01-05T04:14:41.133Z,2.00
2023-01-05T04:17:09.365Z,2.08
2023-01-05T04:19:37.566Z,2.45
2023-01-05T04:22:05.620Z,2.22
2023-01-05T04:24:35.090Z,2.10
2023-01-05T04:27:03.195Z,2.90
2023-01-05T04:29:31.296Z,2.63
2023-01-05T04:31:59.363Z,2.42
2023-01-05T04:34:27.385Z,2.50
2023-01-05T04:36:55.638Z,2.53
2023-01-05T04:39:23.719Z,3.50
2023-01-05T04:41:53.059Z,3.00
2023-01-05T04:44:21.336Z,3.28
2023-01-05T04:46:49.471Z,3.33
2023-01-05T04:49:17.517Z,3.63
2023-01-05T04:51:45.659Z,4.53
2023-01-05T04:54:13.688Z,3.63
2023-01-05T04:56:41.723Z,3.80
2023-01-05T04:59:11.256Z,3.05
2023-01-05T05:01:39.590Z,2.60
2023-01-05T05:04:07.626Z,3.97
2023-01-05T05:06:35.702Z,2.40
2023-01-05T05:09:04.285Z,2.42
2023-01-05T05:11:32.374Z,2.60
2023-01-05T05:14:00.387Z,2.97
2023-01-05T05:16:32.233Z,2.45
2023-01-05T05:19:00.622Z,2.67
2023-01-05T05:21:28.616Z,2.17
2023-01-05T05:23:56.664Z,1.90
2023-01-05T05:26:24.967Z,2.28
2023-01-05T05:28:52.972Z,1.65
2023-01-05T05:31:20.998Z,2.30
2023-01-05T05:33:50.769Z,2.38
2023-01-05T05:36:18.875Z,2.15
2023-01-05T05:38:46.883Z,2.22
2023-01-05T05:41:15.189Z,1.70
2023-01-05T05:43:43.226Z,1.58
2023-01-05T05:46:11.308Z,1.63
2023-01-05T05:48:39.340Z,2.40
2023-01-05T05:51:08.766Z,2.40
2023-01-05T05:53:36.818Z,1.90
2023-01-05T05:56:05.392Z,1.88
2023-01-05T05:58:33.462Z,1.60
2023-01-05T06:01:01.855Z,1.55
2023-01-05T06:03:29.931Z,1.45
2023-01-05T06:05:57.966Z,1.50
2023-01-05T06:08:29.500Z,1.13
2023-01-05T06:10:57.602Z,1.50
2023-01-05T06:13:26.168Z,1.27
2023-01-05T06:15:54.935Z,1.35
2023-01-05T06:18:22.984Z,1.20
2023-01-05T06:20:53.952Z,1.45
2023-01-05T06:23:24.331Z,2.05
2023-01-05T06:25:53.630Z,2.22
2023-01-05T06:28:21.681Z,2.13
2023-01-05T06:30:49.967Z,2.63
2023-01-05T06:33:17.980Z,1.80
2023-01-05T06:35:45.968Z,2.28
2023-01-05T06:38:16.055Z,2.20
2023-01-05T06:40:44.826Z,2.50
2023-01-05T06:43:14.240Z,2.00
2023-01-05T06:45:42.265Z,1.90
2023-01-05T06:48:10.336Z,1.85
2023-01-05T06:50:38.375Z,1.80
2023-01-05T06:53:06.411Z,2.20
2023-01-05T06:55:34.372Z,2.15
2023-01-05T06:58:02.386Z,2.72
2023-01-05T07:00:31.848Z,2.30
2023-01-05T07:03:00.096Z,1.83
2023-01-05T07:05:28.167Z,2.28
2023-01-05T07:07:56.262Z,2.03
2023-01-05T07:10:24.460Z,1.40
2023-01-05T07:12:52.447Z,1.48
2023-01-05T07:15:20.453Z,0.93
2023-01-05T07:17:50.092Z,0.70
2023-01-05T07:20:18.139Z,0.65
2023-01-05T07:22:46.196Z,1.05
2023-01-05T07:25:14.180Z,0.90
2023-01-05T07:27:42.201Z,0.95
2023-01-05T07:30:11.705Z,0.82
2023-01-05T07:32:40.011Z,0.80
2023-01-05T07:35:10.309Z,1.00
2023-01-05T07:37:38.491Z,0.60
2023-01-05T07:40:07.934Z,0.70
2023-01-05T07:42:35.912Z,0.63
2023-01-05T07:45:04.996Z,0.70
2023-01-05T07:47:33.106Z,0.88
2023-01-05T07:50:01.964Z,0.60
2023-01-05T07:52:33.093Z,0.60
2023-01-05T07:55:01.271Z,0.70
2023-01-05T07:57:29.370Z,1.05
2023-01-05T07:59:57.771Z,0.50
2023-01-05T08:02:32.301Z,0.55
2023-01-05T08:05:03.528Z,0.55
2023-01-05T08:07:33.084Z,0.60
2023-01-05T08:10:18.461Z,0.70
2023-01-05T08:13:03.924Z,0.50
2023-01-05T08:15:32.145Z,1.23
2023-01-05T08:18:00.283Z,0.70
2023-01-05T08:20:28.248Z,0.63
2023-01-05T08:22:57.848Z,1.00
2023-01-05T08:25:25.911Z,1.00
2023-01-05T08:27:54.575Z,1.00
2023-01-05T08:30:22.788Z,1.00
2023-01-05T08:32:50.813Z,1.40
2023-01-05T08:35:19.281Z,1.02
2023-01-05T08:37:47.547Z,2.50
2023-01-05T08:40:17.207Z,1.50
2023-01-05T08:42:48.150Z,1.25
2023-01-05T08:45:16.760Z,1.40
2023-01-05T08:47:45.126Z,1.88
2023-01-05T08:50:13.242Z,1.73
2023-01-05T08:52:41.569Z,1.58
2023-01-05T08:55:10.031Z,1.63
2023-01-05T08:57:39.523Z,1.42
2023-01-05T09:00:09.742Z,1.45
2023-01-05T09:02:38.147Z,1.55
2023-01-05T09:05:07.153Z,1.70
2023-01-05T09:07:35.466Z,1.08
2023-01-05T09:10:03.403Z,1.30
2023-01-05T09:12:33.375Z,1.20
2023-01-05T09:15:03.536Z,1.33
2023-01-05T09:17:32.736Z,1.30
2023-01-05T09:20:03.748Z,1.58
2023-01-05T09:22:31.991Z,1.15
2023-01-05T09:25:00.056Z,1.23
2023-01-05T09:27:28.209Z,1.40
2023-01-05T09:29:56.292Z,1.33
2023-01-05T09:32:25.752Z,1.10
2023-01-05T09:34:53.789Z,2.08
2023-01-05T09:37:21.930Z,1.90
2023-01-05T09:39:50.601Z,1.48
2023-01-05T09:42:21.895Z,0.90
2023-01-05T09:44:58.401Z,1.25
2023-01-05T09:47:31.807Z,1.60
2023-01-05T09:50:00.886Z,1.17
2023-01-05T09:52:32.817Z,1.27
2023-01-05T09:55:05.543Z,1.58
2023-01-05T09:57:34.007Z,1.40
2023-01-05T10:00:05.120Z,1.23
2023-01-05T10:02:36.488Z,0.90
2023-01-05T10:05:06.112Z,1.17
2023-01-05T10:07:42.925Z,1.20
2023-01-05T10:10:28.060Z,2.05
2023-01-05T10:13:04.500Z,1.48
2023-01-05T10:15:37.795Z,1.48
2023-01-05T10:18:13.258Z,1.33
2023-01-05T10:20:48.345Z,1.33
2023-01-05T10:23:27.388Z,1.63
2023-01-05T10:25:58.757Z,1.48
2023-01-05T10:28:35.327Z,1.42
2023-01-05T10:31:05.472Z,1.48
2023-01-05T10:33:52.077Z,1.10
2023-01-05T10:39:27.169Z,2.40
2023-01-05T10:42:00.452Z,2.80
2023-01-05T10:44:38.403Z,1.48
2023-01-05T10:47:09.526Z,1.17
2023-01-05T10:49:41.600Z,1.63
2023-01-05T10:52:14.585Z,1.83
2023-01-05T10:54:45.823Z,3.30
2023-01-05T10:57:38.306Z,3.45
2023-01-05T11:00:11.145Z,3.15
2023-01-05T11:02:40.846Z,3.13
2023-01-05T11:05:24.853Z,1.92
2023-01-05T11:07:55.216Z,1.20
2023-01-05T11:10:25.390Z,1.13
2023-01-05T11:12:56.683Z,1.00
2023-01-05T11:15:25.155Z,1.98
2023-01-05T11:17:55.049Z,1.45
2023-01-05T11:20:24.548Z,1.35
2023-01-05T11:22:53.777Z,1.38
2023-01-05T11:25:27.027Z,1.42
2023-01-05T11:28:11.378Z,2.00
2023-01-05T11:30:48.319Z,0.90
2023-01-05T11:33:25.532Z,1.45
2023-01-05T11:35:55.656Z,1.65
2023-01-05T11:38:27.634Z,1.20
2023-01-05T11:40:57.156Z,1.10
2023-01-05T11:43:27.956Z,1.20
2023-01-05T11:46:00.000Z,1.50
2023-01-05T11:48:32.049Z,1.27
2023-01-05T11:51:02.746Z,1.98
2023-01-05T11:53:38.638Z,1.17
2023-01-05T11:56:17.815Z,1.45
2023-01-05T11:58:46.935Z,1.60
2023-01-05T12:01:27.911Z,1.55
2023-01-05T12:04:02.196Z,1.35
2023-01-05T12:06:51.803Z,1.70
2023-01-05T12:09:29.825Z,1.88
2023-01-05T12:12:11.339Z,1.95
2023-01-05T12:15:00.354Z,1.50
2023-01-05T12:17:33.870Z,1.83
2023-01-05T12:20:14.468Z,1.75
2023-01-05T12:22:53.206Z,2.05
2023-01-05T12:25:43.656Z,1.05
2023-01-05T12:28:41.102Z,1.30
2023-01-05T12:34:29.567Z,1.55
2023-01-05T12:37:06.655Z,0.90
2023-01-05T12:39:54.674Z,1.80
2023-01-05T12:42:37.760Z,1.30
2023-01-05T12:45:31.549Z,1.70
2023-01-05T12:48:02.002Z,1.27
2023-01-05T12:50:34.765Z,1.30
2023-01-05T12:53:09.333Z,1.50
2023-01-05T12:55:42.304Z,1.20
2023-01-05T12:58:14.060Z,1.58
2023-01-05T13:00:46.196Z,1.35
2023-01-05T13:05:46.848Z,1.10
2023-01-05T13:08:18.446Z,1.10
2023-01-05T13:10:51.012Z,1.10
2023-01-05T13:13:21.879Z,1.45
2023-01-05T13:15:53.927Z,1.30
2023-01-05T13:18:23.119Z,1.00
2023-01-05T13:20:54.760Z,1.20
2023-01-05T13:23:26.153Z,1.42
2023-01-05T13:25:58.688Z,1.85
2023-01-05T13:31:18.333Z,1.63
2023-01-05T13:34:12.882Z,1.38
2023-01-05T13:36:54.237Z,1.42
2023-01-05T13:39:43.834Z,1.83
2023-01-05T13:42:40.696Z,1.77
2023-01-05T13:45:55.568Z,1.83
2023-01-05T13:48:44.653Z,1.90
2023-01-05T13:51:30.829Z,1.75
2023-01-05T13:53:59.335Z,2.08
2023-01-05T13:56:28.781Z,1.73
2023-01-05T13:59:02.369Z,2.20
2023-01-05T14:01:37.911Z,2.15
2023-01-05T14:04:06.727Z,1.60
2023-01-05T14:06:37.000Z,1.85
2023-01-05T14:09:06.839Z,1.40
2023-01-05T14:11:36.201Z,1.55
2023-01-05T14:14:08.607Z,2.22
2023-01-05T14:17:03.676Z,1.98
2023-01-05T14:19:51.810Z,2.22
2023-01-05T14:22:37.382Z,1.67
2023-01-05T14:25:43.568Z,2.22
2023-01-05T14:28:25.056Z,1.92
2023-01-05T14:31:35.012Z,1.45
2023-01-05T14:34:05.230Z,2.22
2023-01-05T14:36:36.066Z,1.60
2023-01-05T14:39:26.032Z,1.75
2023-01-05T14:42:01.447Z,2.08
2023-01-05T14:44:32.765Z,2.00
2023-01-05T14:47:02.535Z,1.60
2023-01-05T14:49:33.210Z,1.50
2023-01-05T14:52:02.691Z,1.40
2023-01-05T14:55:05.962Z,1.95
2023-01-05T14:57:49.600Z,1.67
2023-01-05T15:00:21.059Z,1.58
2023-01-05T15:02:57.388Z,1.57
2023-01-05T15:05:26.122Z,2.25
2023-01-05T15:08:02.406Z,1.73
2023-01-05T15:10:49.265Z,2.10
2023-01-05T15:13:41.009Z,2.08
2023-01-05T15:16:15.440Z,1.65
2023-01-05T15:19:11.432Z,1.30
2023-01-05T15:21:53.355Z,1.52
2023-01-05T15:24:51.233Z,1.52
2023-01-05T15:27:51.669Z,1.80
2023-01-05T15:30:33.581Z,1.85
2023-01-05T15:33:09.366Z,1.52
2023-01-05T15:35:43.685Z,2.05
2023-01-05T15:38:20.666Z,1.60
2023-01-05T15:40:49.220Z,1.75
2023-01-05T15:43:18.081Z,1.77
2023-01-05T15:45:51.509Z,1.58
2023-01-05T15:48:25.117Z,1.33
2023-01-05T15:50:56.348Z,1.65
2023-01-05T15:53:26.685Z,1.67
2023-01-05T15:55:54.730Z,1.75
2023-01-05T15:58:24.058Z,1.85
2023-01-05T16:01:03.972Z,1.85
2023-01-05T16:03:34.054Z,1.30
2023-01-05T16:06:05.681Z,1.98
2023-01-05T16:08:36.448Z,1.92
2023-01-05T16:11:07.433Z,1.65
2023-01-05T16:13:38.360Z,1.75
2023-01-05T16:16:12.953Z,1.80
2023-01-05T16:18:47.608Z,2.13
2023-01-05T16:21:22.130Z,1.92
2023-01-05T16:23:52.532Z,1.50
2023-01-05T16:26:20.937Z,1.42
2023-01-05T16:28:48.928Z,2.38
2023-01-05T16:31:27.113Z,1.83
2023-01-05T16:34:03.110Z,1.67
2023-01-05T16:36:32.429Z,2.10
2023-01-05T16:39:14.377Z,2.05
2023-01-05T16:42:02.666Z,2.10
2023-01-05T16:44:33.088Z,1.70
2023-01-05T16:47:11.530Z,1.15
2023-01-05T16:49:49.944Z,1.90
2023-01-05T16:52:33.232Z,2.88
2023-01-05T16:55:28.160Z,2.05
2023-01-05T16:57:56.820Z,2.80
2023-01-05T17:00:36.498Z,2.03
2023-01-05T17:03:27.776Z,2.25
2023-01-05T17:05:56.542Z,2.17
2023-01-05T17:08:28.024Z,1.80
2023-01-05T17:10:58.560Z,2.47
2023-01-05T17:13:28.389Z,2.00
2023-01-05T17:15:56.409Z,1.48
2023-01-05T17:18:27.352Z,1.60
2023-01-05T17:20:57.578Z,2.47
2023-01-05T17:23:28.919Z,1.90
2023-01-05T17:25:59.025Z,1.77
2023-01-05T17:28:27.113Z,2.05
2023-01-05T17:30:55.464Z,1.52
2023-01-05T17:33:23.469Z,2.08
2023-01-05T17:35:56.242Z,1.30
2023-01-05T17:38:24.341Z,3.85
2023-01-05T17:40:52.427Z,3.03
2023-01-05T17:43:20.398Z,2.58
2023-01-05T17:45:48.515Z,2.78
2023-01-05T17:48:17.013Z,1.92
2023-01-05T17:50:45.737Z,2.40
2023-01-05T17:53:15.025Z,1.92
2023-01-05T17:55:44.040Z,1.65
2023-01-05T17:58:14.040Z,1.80
2023-01-05T18:03:22.214Z,2.15
2023-01-05T18:05:52.421Z,2.53
2023-01-05T18:08:22.225Z,1.67
2023-01-05T18:10:50.278Z,1.92
2023-01-05T18:13:21.443Z,2.17
2023-01-05T18:15:52.957Z,1.52
2023-01-05T18:18:21.827Z,1.88
2023-01-05T18:20:51.465Z,2.13
2023-01-05T18:23:20.697Z,2.20
2023-01-05T18:25:50.095Z,1.92
2023-01-05T18:28:18.257Z,2.13
2023-01-05T18:30:46.650Z,1.83
2023-01-05T18:33:14.705Z,1.60
2023-01-05T18:35:43.737Z,2.05
2023-01-05T18:38:12.099Z,1.60
2023-01-05T18:40:40.101Z,2.25
2023-01-05T18:43:09.442Z,3.60
2023-01-05T18:45:39.673Z,4.20
2023-01-05T18:48:08.512Z,2.33
2023-01-05T18:50:40.710Z,3.97
2023-01-05T18:53:08.798Z,2.50
2023-01-05T18:55:41.175Z,2.42
2023-01-05T18:58:11.131Z,2.67
2023-01-05T19:00:39.837Z,2.22
2023-01-05T19:03:08.025Z,2.70
2023-01-05T19:05:50.921Z,2.03
2023-01-05T19:08:18.911Z,3.00
2023-01-05T19:10:46.959Z,2.25
2023-01-05T19:13:16.313Z,2.30
2023-01-05T19:15:44.346Z,2.13
2023-01-05T19:18:12.378Z,2.20
2023-01-05T19:20:40.345Z,2.05
2023-01-05T19:23:08.479Z,2.25
2023-01-05T19:25:36.453Z,2.10
2023-01-05T19:28:04.435Z,2.70
2023-01-05T19:30:35.787Z,3.35
2023-01-05T19:33:03.782Z,4.13
2023-01-05T19:35:32.931Z,5.22
2023-01-05T19:38:02.556Z,4.22
2023-01-05T19:40:30.751Z,4.28
2023-01-05T19:42:58.738Z,3.83
2023-01-05T19:45:26.983Z,3.42
2023-01-05T19:47:56.342Z,5.40
2023-01-05T19:50:24.308Z,4.65
2023-01-05T19:52:53.376Z,4.40
2023-01-05T19:55:21.442Z,3.72
2023-01-05T19:57:49.487Z,4.45
2023-01-05T20:00:18.495Z,3.75
2023-01-05T20:02:47.664Z,3.40
2023-01-05T20:05:17.417Z,3.17
2023-01-05T20:07:45.380Z,3.22
2023-01-05T20:10:14.515Z,3.45
2023-01-05T20:12:42.515Z,2.97
2023-01-05T20:15:13.161Z,3.65
2023-01-05T20:17:42.231Z,3.97
2023-01-05T20:20:12.266Z,4.50
2023-01-05T20:22:41.963Z,2.70
2023-01-05T20:25:10.801Z,2.67
2023-01-05T20:27:39.653Z,3.10
2023-01-05T20:30:08.533Z,1.90
2023-01-05T20:32:36.522Z,2.40
2023-01-05T20:35:06.923Z,2.25
2023-01-05T20:37:34.920Z,2.58
2023-01-05T20:40:05.573Z,2.97
2023-01-05T20:42:33.894Z,3.25
2023-01-05T20:45:03.793Z,2.20
2023-01-05T20:47:39.459Z,2.28
2023-01-05T20:50:15.033Z,2.42
2023-01-05T20:52:43.068Z,2.67
2023-01-05T20:55:12.568Z,2.45
2023-01-05T20:57:40.618Z,2.40
2023-01-05T21:00:10.551Z,2.78
2023-01-05T21:02:38.708Z,2.65
2023-01-05T21:05:07.259Z,2.22
2023-01-05T21:07:35.271Z,2.00
2023-01-05T21:10:03.473Z,1.90
2023-01-05T21:12:48.662Z,2.28
2023-01-05T21:15:16.693Z,1.88
2023-01-05T21:17:44.704Z,1.60
2023-01-05T21:20:12.677Z,1.90
2023-01-05T21:22:40.689Z,1.70
2023-01-05T21:25:09.198Z,1.70
2023-01-05T21:27:37.513Z,1.55
2023-01-05T21:30:08.515Z,1.35
2023-01-05T21:32:39.121Z,1.45
2023-01-05T21:35:09.221Z,1.60
2023-01-05T21:37:37.309Z,1.15
2023-01-05T21:40:06.294Z,1.70
2023-01-05T21:42:45.871Z,1.85
2023-01-05T21:45:15.234Z,1.63
2023-01-05T21:47:43.400Z,1.67
2023-01-05T21:50:32.990Z,1.55
2023-01-05T21:53:18.993Z,2.88
2023-01-05T21:56:05.861Z,1.85
2023-01-05T21:58:34.062Z,1.95
2023-01-05T22:01:04.012Z,1.67
2023-01-05T22:03:32.135Z,1.98
2023-01-05T22:06:00.232Z,2.10
2023-01-05T22:08:28.269Z,2.20
2023-01-05T22:10:56.761Z,1.92
2023-01-05T22:13:25.477Z,2.22
2023-01-05T22:15:54.504Z,1.83
2023-01-05T22:18:25.147Z,1.77
2023-01-05T22:20:53.904Z,1.83
2023-01-05T22:23:21.885Z,2.13
2023-01-05T22:25:58.494Z,2.45
2023-01-05T22:28:26.721Z,2.10
2023-01-05T22:31:02.460Z,1.83
2023-01-05T22:33:32.698Z,2.30
2023-01-05T22:36:00.974Z,2.50
2023-01-05T22:38:29.909Z,1.98
2023-01-05T22:40:59.487Z,2.42
2023-01-05T22:43:27.825Z,2.50
2023-01-05T22:46:01.912Z,2.10
2023-01-05T22:48:33.713Z,3.25
2023-01-05T22:51:04.849Z,3.22
2023-01-05T22:53:33.381Z,2.63
2023-01-05T22:56:01.639Z,2.47
2023-01-05T22:58:29.626Z,2.95
2023-01-05T23:01:07.000Z,3.13
2023-01-05T23:03:36.563Z,3.38
2023-01-05T23:06:04.807Z,3.03
2023-01-05T23:08:33.969Z,4.68
2023-01-05T23:11:02.554Z,3.05
2023-01-05T23:13:30.650Z,2.90
2023-01-05T23:15:58.950Z,3.90
2023-01-05T23:18:27.103Z,3.30
2023-01-05T23:20:58.446Z,3.30
2023-01-05T23:23:27.383Z,4.00
2023-01-05T23:25:56.021Z,2.88
2023-01-05T23:28:25.450Z,2.83
2023-01-05T23:30:55.326Z,3.42
2023-01-05T23:33:25.003Z,2.90
2023-01-05T23:35:53.869Z,3.20
2023-01-05T23:38:24.117Z,3.35
2023-01-05T23:40:53.972Z,3.00
2023-01-05T23:43:24.996Z,3.63
2023-01-05T23:45:54.317Z,3.60
2023-01-05T23:48:22.369Z,3.85
2023-01-05T23:50:50.367Z,3.47
2023-01-05T23:53:18.409Z,3.40
2023-01-05T23:55:47.764Z,3.13
2023-01-05T23:58:15.789Z,3.70
